createdAt,value
2018-08-28T00:01:46.873Z,74.21
2018-08-28T00:04:15.628Z,74.16
2018-08-28T00:06:44.526Z,73.63
2018-08-28T00:09:13.165Z,73.79
2018-08-28T00:11:42.177Z,73.67
2018-08-28T00:14:11.023Z,73.92
2018-08-28T00:16:39.903Z,73.68
2018-08-28T00:19:08.695Z,73.67
2018-08-28T00:21:37.491Z,73.40
2018-08-28T00:24:06.460Z,73.42
2018-08-28T00:26:35.525Z,73.84
2018-08-28T00:29:04.373Z,74.01
2018-08-28T00:31:33.138Z,73.71
2018-08-28T00:34:01.921Z,73.45
2018-08-28T00:36:30.728Z,73.78
2018-08-28T00:38:59.634Z,73.58
2018-08-28T00:41:28.480Z,73.67
2018-08-28T00:43:57.245Z,73.90
2018-08-28T00:46:26.039Z,73.72
2018-08-28T00:48:54.948Z,73.82
2018-08-28T00:51:23.717Z,73.85
2018-08-28T00:53:52.469Z,73.22
2018-08-28T00:56:21.699Z,73.77
2018-08-28T00:58:50.488Z,74.02
2018-08-28T01:01:19.353Z,73.75
2018-08-28T01:03:48.243Z,74.34
2018-08-28T01:06:17.003Z,74.34
2018-08-28T01:08:45.744Z,74.65
2018-08-28T01:11:14.481Z,74.71
2018-08-28T01:13:43.547Z,74.15
2018-08-28T01:16:12.224Z,73.76
2018-08-28T01:18:41.038Z,73.94
2018-08-28T01:21:10.101Z,74.04
2018-08-28T01:23:38.797Z,74.17
2018-08-28T01:26:08.189Z,74.47
2018-08-28T01:28:36.854Z,74.58
2018-08-28T01:31:06.191Z,74.45
2018-08-28T01:33:35.176Z,74.45
2018-08-28T01:36:03.847Z,73.93
2018-08-28T01:38:32.504Z,74.07
2018-08-28T01:41:01.298Z,74.20
2018-08-28T01:43:31.622Z,74.05
2018-08-28T01:46:00.541Z,73.98
2018-08-28T01:48:29.927Z,73.99
2018-08-28T01:50:58.831Z,73.40
2018-08-28T01:53:27.526Z,73.66
2018-08-28T01:55:56.497Z,73.80
2018-08-28T01:58:25.476Z,73.76
2018-08-28T02:00:54.312Z,73.87
2018-08-28T02:03:23.128Z,74.40
2018-08-28T02:05:52.149Z,74.21
2018-08-28T02:08:20.923Z,73.85
2018-08-28T02:10:49.707Z,74.68
2018-08-28T02:13:18.674Z,74.09
2018-08-28T02:15:47.525Z,74.75
2018-08-28T02:18:16.289Z,74.68
2018-08-28T02:20:45.281Z,74.12
2018-08-28T02:23:14.129Z,75.13
2018-08-28T02:25:57.820Z,75.40
2018-08-28T02:28:26.652Z,74.78
2018-08-28T02:30:55.647Z,74.36
2018-08-28T02:33:24.932Z,74.43
2018-08-28T02:35:53.879Z,74.53
2018-08-28T02:38:22.911Z,74.47
2018-08-28T02:40:51.734Z,74.81
2018-08-28T02:43:20.397Z,74.26
2018-08-28T02:45:49.074Z,74.46
2018-08-28T02:48:17.895Z,74.78
2018-08-28T02:50:46.852Z,74.30
2018-08-28T02:53:15.664Z,74.43
2018-08-28T02:55:44.572Z,74.70
2018-08-28T02:58:13.311Z,74.86
2018-08-28T03:00:42.000Z,74.73
2018-08-28T03:03:11.266Z,74.65
2018-08-28T03:05:40.047Z,75.11
2018-08-28T03:08:08.837Z,74.88
2018-08-28T03:10:37.731Z,75.18
2018-08-28T03:13:06.855Z,74.83
2018-08-28T03:15:35.655Z,75.29
2018-08-28T03:18:04.610Z,75.59
2018-08-28T03:20:33.604Z,75.38
2018-08-28T03:23:02.473Z,75.39
2018-08-28T03:25:31.442Z,75.97
2018-08-28T03:28:00.219Z,76.01
2018-08-28T03:30:29.296Z,76.33
2018-08-28T03:32:58.293Z,76.49
2018-08-28T03:35:27.142Z,75.86
2018-08-28T03:37:56.338Z,75.96
2018-08-28T03:40:25.307Z,75.75
2018-08-28T03:42:54.062Z,76.13
2018-08-28T03:45:23.208Z,75.96
2018-08-28T03:47:52.330Z,75.93
2018-08-28T03:50:21.135Z,76.05
2018-08-28T03:52:49.915Z,76.20
2018-08-28T03:55:18.674Z,76.56
2018-08-28T03:57:47.563Z,76.35
2018-08-28T04:00:16.290Z,77.20
2018-08-28T04:02:45.177Z,77.22
2018-08-28T04:05:13.965Z,76.61
2018-08-28T04:07:42.752Z,76.92
2018-08-28T04:10:11.516Z,76.61
2018-08-28T04:12:40.433Z,76.78
2018-08-28T04:15:09.891Z,77.22
2018-08-28T04:17:43.846Z,76.73
2018-08-28T04:20:12.506Z,76.90
2018-08-28T04:22:41.560Z,76.88
2018-08-28T04:25:10.810Z,76.57
2018-08-28T04:27:39.665Z,77.05
2018-08-28T04:30:09.240Z,77.75
2018-08-28T04:32:38.230Z,77.05
2018-08-28T04:35:07.451Z,77.91
2018-08-28T04:37:36.549Z,77.91
2018-08-28T04:40:06.383Z,79.84
2018-08-28T04:42:35.422Z,80.07
2018-08-28T04:45:04.962Z,79.72
2018-08-28T04:47:33.982Z,79.62
2018-08-28T04:50:02.935Z,79.54
2018-08-28T04:52:32.138Z,80.97
2018-08-28T04:55:01.498Z,81.02
2018-08-28T04:57:30.181Z,80.94
2018-08-28T04:59:59.384Z,81.08
2018-08-28T05:02:34.874Z,80.70
2018-08-28T05:05:05.316Z,80.80
2018-08-28T05:07:34.564Z,79.88
2018-08-28T05:10:03.897Z,80.33
2018-08-28T05:12:32.525Z,80.19
2018-08-28T05:15:01.458Z,80.46
2018-08-28T05:17:30.309Z,80.46
2018-08-28T05:19:59.477Z,79.51
2018-08-28T05:22:28.178Z,78.59
2018-08-28T05:24:57.046Z,79.51
2018-08-28T05:27:26.037Z,78.71
2018-08-28T05:29:54.833Z,78.92
2018-08-28T05:32:23.832Z,79.92
2018-08-28T05:34:52.573Z,79.01
2018-08-28T05:37:21.222Z,78.44
2018-08-28T05:39:49.893Z,78.74
2018-08-28T05:42:18.684Z,78.75
2018-08-28T05:44:47.742Z,78.85
2018-08-28T05:47:16.469Z,79.26
2018-08-28T05:49:45.410Z,78.74
2018-08-28T05:52:14.545Z,77.89
2018-08-28T05:54:43.396Z,78.34
2018-08-28T05:57:12.651Z,77.96
2018-08-28T05:59:41.300Z,78.62
2018-08-28T06:02:10.133Z,78.76
2018-08-28T06:04:39.026Z,78.22
2018-08-28T06:07:07.918Z,79.51
2018-08-28T06:09:36.809Z,80.02
2018-08-28T06:12:05.910Z,80.52
2018-08-28T06:14:34.978Z,80.76
2018-08-28T06:17:03.782Z,81.12
2018-08-28T06:19:32.430Z,80.11
2018-08-28T06:22:01.163Z,81.98
2018-08-28T06:24:30.079Z,82.04
2018-08-28T06:26:58.783Z,81.08
2018-08-28T06:29:27.705Z,81.58
2018-08-28T06:31:56.560Z,81.24
2018-08-28T06:34:25.523Z,81.16
2018-08-28T06:36:54.589Z,81.60
2018-08-28T06:39:23.501Z,80.82
2018-08-28T06:41:52.189Z,81.47
2018-08-28T06:44:21.085Z,81.08
2018-08-28T06:46:49.881Z,82.19
2018-08-28T06:49:18.871Z,81.26
2018-08-28T06:51:47.665Z,81.47
2018-08-28T06:54:16.940Z,81.97
2018-08-28T06:56:46.204Z,81.75
2018-08-28T06:59:15.084Z,81.25
2018-08-28T07:01:43.754Z,81.77
2018-08-28T07:04:12.602Z,82.20
2018-08-28T07:06:41.365Z,82.71
2018-08-28T07:09:10.091Z,82.27
2018-08-28T07:11:38.844Z,81.13
2018-08-28T07:14:07.640Z,80.81
2018-08-28T07:16:36.667Z,80.72
2018-08-28T07:19:05.837Z,80.97
2018-08-28T07:21:34.747Z,81.51
2018-08-28T07:24:03.455Z,80.73
2018-08-28T07:26:32.463Z,80.38
2018-08-28T07:29:01.232Z,80.29
2018-08-28T07:31:30.078Z,79.83
2018-08-28T07:33:59.299Z,80.22
2018-08-28T07:36:27.931Z,79.93
2018-08-28T07:38:57.077Z,79.99
2018-08-28T07:41:25.815Z,79.46
2018-08-28T07:43:55.056Z,79.57
2018-08-28T07:46:24.024Z,79.37
2018-08-28T07:48:53.139Z,78.82
2018-08-28T07:52:25.591Z,79.02
2018-08-28T07:54:54.336Z,79.10
2018-08-28T07:57:23.696Z,79.08
2018-08-28T07:59:52.812Z,78.95
2018-08-28T08:02:21.552Z,78.85
2018-08-28T08:04:50.266Z,78.92
2018-08-28T08:07:21.806Z,78.41
2018-08-28T08:09:50.475Z,78.10
2018-08-28T08:12:19.394Z,77.94
2018-08-28T08:14:48.296Z,78.30
2018-08-28T08:17:17.154Z,77.97
2018-08-28T08:19:45.978Z,77.73
2018-08-28T08:22:14.718Z,77.94
2018-08-28T08:24:44.058Z,77.41
2018-08-28T08:27:13.562Z,77.18
2018-08-28T08:29:42.449Z,77.07
2018-08-28T08:32:11.140Z,77.07
2018-08-28T08:34:40.050Z,77.25
2018-08-28T08:37:08.918Z,77.44
2018-08-28T08:39:38.026Z,77.33
2018-08-28T08:42:07.086Z,76.94
2018-08-28T08:44:35.992Z,76.62
2018-08-28T08:47:04.941Z,76.42
2018-08-28T08:49:33.645Z,76.55
2018-08-28T08:52:02.293Z,77.09
2018-08-28T08:54:31.075Z,76.33
2018-08-28T08:56:59.805Z,76.73
2018-08-28T08:59:28.413Z,75.78
2018-08-28T09:01:57.129Z,75.41
2018-08-28T09:04:26.051Z,75.27
2018-08-28T09:06:55.078Z,75.26
2018-08-28T09:09:24.086Z,74.65
2018-08-28T09:11:53.005Z,74.34
2018-08-28T09:14:21.683Z,74.37
2018-08-28T09:16:50.510Z,74.44
2018-08-28T09:19:19.202Z,73.71
2018-08-28T09:21:47.767Z,73.22
2018-08-28T09:24:16.690Z,72.92
2018-08-28T09:26:45.648Z,72.70
2018-08-28T09:29:14.890Z,72.41
2018-08-28T09:31:43.798Z,71.88
2018-08-28T09:34:12.788Z,71.56
2018-08-28T09:36:41.561Z,70.86
2018-08-28T09:39:10.396Z,70.93
2018-08-28T09:41:39.269Z,70.99
2018-08-28T09:44:08.284Z,70.72
2018-08-28T09:46:37.007Z,70.37
2018-08-28T09:49:06.010Z,70.43
2018-08-28T09:51:34.721Z,69.58
2018-08-28T09:54:04.000Z,69.35
2018-08-28T09:56:32.901Z,69.21
2018-08-28T09:59:02.002Z,68.84
2018-08-28T10:01:35.801Z,69.11
2018-08-28T10:04:04.569Z,68.98
2018-08-28T10:06:33.560Z,68.42
2018-08-28T10:09:02.456Z,68.79
2018-08-28T10:11:31.234Z,68.89
2018-08-28T10:13:59.806Z,68.93
2018-08-28T10:16:28.510Z,68.77
2018-08-28T10:18:57.467Z,68.64
2018-08-28T10:21:26.401Z,68.11
2018-08-28T10:23:55.235Z,68.52
2018-08-28T10:26:24.180Z,67.63
2018-08-28T10:28:52.878Z,67.81
2018-08-28T10:31:21.573Z,68.13
2018-08-28T10:33:50.359Z,67.83
2018-08-28T10:36:19.191Z,67.99
2018-08-28T10:38:48.018Z,67.53
2018-08-28T10:41:17.568Z,67.81
2018-08-28T10:43:46.406Z,67.55
2018-08-28T10:46:15.436Z,68.12
2018-08-28T10:48:44.116Z,68.92
2018-08-28T10:51:12.769Z,68.29
2018-08-28T10:53:41.531Z,68.97
2018-08-28T10:56:10.317Z,68.88
2018-08-28T10:58:39.268Z,68.02
2018-08-28T11:01:08.366Z,68.33
2018-08-28T11:03:37.192Z,67.70
2018-08-28T11:06:06.232Z,68.09
2018-08-28T11:08:35.481Z,68.43
2018-08-28T11:11:04.144Z,67.57
2018-08-28T11:13:32.763Z,67.70
2018-08-28T11:16:01.701Z,67.70
2018-08-28T11:18:30.491Z,67.70
2018-08-28T11:20:59.369Z,67.74
2018-08-28T11:23:28.214Z,67.96
2018-08-28T11:25:57.087Z,68.57
2018-08-28T11:28:26.016Z,68.76
2018-08-28T11:30:54.917Z,68.80
2018-08-28T11:33:23.710Z,69.08
2018-08-28T11:35:52.418Z,69.46
2018-08-28T11:38:21.367Z,69.32
2018-08-28T11:40:50.067Z,69.39
2018-08-28T11:43:18.716Z,69.76
2018-08-28T11:45:47.669Z,69.34
2018-08-28T11:48:16.518Z,69.20
2018-08-28T11:50:45.445Z,69.15
2018-08-28T11:53:14.215Z,69.28
2018-08-28T11:55:43.194Z,68.93
2018-08-28T11:58:12.049Z,69.73
2018-08-28T12:00:40.841Z,70.20
2018-08-28T12:03:09.653Z,69.35
2018-08-28T12:05:38.540Z,69.14
2018-08-28T12:08:07.515Z,69.93
2018-08-28T12:10:36.519Z,69.88
2018-08-28T12:13:05.355Z,70.08
2018-08-28T12:15:34.227Z,70.37
2018-08-28T12:18:03.207Z,70.02
2018-08-28T12:20:32.405Z,70.30
2018-08-28T12:23:01.098Z,69.89
2018-08-28T12:25:29.794Z,70.82
2018-08-28T12:27:58.657Z,70.39
2018-08-28T12:30:27.765Z,70.36
2018-08-28T12:32:56.610Z,69.88
2018-08-28T12:35:25.349Z,69.97
2018-08-28T12:37:54.195Z,70.04
2018-08-28T12:40:22.960Z,69.57
2018-08-28T12:42:51.869Z,70.05
2018-08-28T12:45:20.613Z,70.77
2018-08-28T12:47:49.578Z,70.84
2018-08-28T12:50:18.604Z,71.03
2018-08-28T12:52:47.679Z,70.31
2018-08-28T12:55:16.724Z,70.92
2018-08-28T12:57:45.666Z,70.70
2018-08-28T13:00:14.500Z,70.38
2018-08-28T13:02:43.345Z,69.85
2018-08-28T13:05:12.085Z,69.19
2018-08-28T13:07:40.988Z,70.36
2018-08-28T13:10:09.956Z,70.44
2018-08-28T13:12:38.954Z,70.66
2018-08-28T13:15:08.181Z,70.34
2018-08-28T13:17:37.470Z,70.62
2018-08-28T13:20:06.719Z,70.84
2018-08-28T13:22:35.743Z,70.47
2018-08-28T13:25:04.598Z,69.80
2018-08-28T13:27:33.322Z,69.94
2018-08-28T13:30:02.759Z,69.87
2018-08-28T13:32:31.454Z,69.82
2018-08-28T13:35:00.547Z,69.11
2018-08-28T13:37:29.546Z,69.06
2018-08-28T13:39:58.721Z,68.38
2018-08-28T13:42:27.661Z,68.27
2018-08-28T13:44:56.523Z,68.61
2018-08-28T13:47:25.546Z,68.96
2018-08-28T13:49:54.334Z,67.77
2018-08-28T13:52:23.044Z,67.48
2018-08-28T13:54:51.770Z,66.97
2018-08-28T13:57:20.672Z,65.74
2018-08-28T13:59:49.461Z,63.13
2018-08-28T14:02:18.642Z,60.34
2018-08-28T14:04:47.619Z,58.10
2018-08-28T14:07:16.546Z,57.54
2018-08-28T14:09:45.273Z,59.57
2018-08-28T14:12:14.160Z,58.85
2018-08-28T14:14:42.973Z,54.61
2018-08-28T14:17:11.915Z,51.03
2018-08-28T14:19:40.617Z,46.53
2018-08-28T14:22:09.249Z,45.54
2018-08-28T14:24:38.984Z,38.78
2018-08-28T14:27:08.062Z,41.06
2018-08-28T14:29:37.090Z,39.41
2018-08-28T14:32:06.169Z,37.96
2018-08-28T14:34:34.951Z,35.84
2018-08-28T14:37:03.710Z,38.66
2018-08-28T14:39:32.865Z,38.70
2018-08-28T14:42:01.776Z,38.28
2018-08-28T14:44:30.521Z,38.85
2018-08-28T14:46:59.529Z,40.44
2018-08-28T14:49:28.557Z,43.25
2018-08-28T14:51:57.490Z,44.12
2018-08-28T14:54:26.429Z,47.57
2018-08-28T14:56:55.384Z,49.09
2018-08-28T14:59:24.253Z,51.48
2018-08-28T15:01:52.979Z,52.49
2018-08-28T15:04:21.943Z,54.11
2018-08-28T15:06:50.642Z,55.24
2018-08-28T15:09:19.840Z,55.17
2018-08-28T15:11:48.555Z,55.97
2018-08-28T15:14:17.467Z,55.32
2018-08-28T15:16:46.207Z,56.62
2018-08-28T15:19:14.920Z,58.27
2018-08-28T15:21:43.538Z,59.24
2018-08-28T15:24:12.255Z,60.22
2018-08-28T15:26:41.032Z,62.12
2018-08-28T15:29:10.172Z,63.44
2018-08-28T15:31:38.828Z,64.55
2018-08-28T15:34:07.709Z,63.73
2018-08-28T15:36:36.644Z,64.26
2018-08-28T15:39:06.330Z,64.27
2018-08-28T15:41:35.084Z,65.78
2018-08-28T15:44:03.945Z,66.09
2018-08-28T15:46:32.904Z,66.32
2018-08-28T15:49:01.860Z,65.89
2018-08-28T15:51:30.852Z,67.11
2018-08-28T15:53:59.457Z,67.24
2018-08-28T15:56:28.240Z,67.37
2018-08-28T15:58:57.226Z,67.94
2018-08-28T16:01:26.292Z,67.47
2018-08-28T16:03:55.077Z,69.03
2018-08-28T16:06:23.862Z,68.23
2018-08-28T16:08:52.713Z,67.72
2018-08-28T16:11:21.431Z,69.05
2018-08-28T16:13:50.395Z,68.14
2018-08-28T16:16:19.116Z,67.88
2018-08-28T16:18:48.207Z,68.39
2018-08-28T16:21:17.136Z,67.87
2018-08-28T16:23:47.792Z,68.01
2018-08-28T16:26:16.735Z,67.92
2018-08-28T16:28:45.632Z,69.27
2018-08-28T16:31:15.237Z,68.47
2018-08-28T16:33:44.350Z,69.33
2018-08-28T16:36:13.048Z,68.49
2018-08-28T16:38:42.441Z,68.20
2018-08-28T16:41:12.487Z,68.82
2018-08-28T16:43:41.554Z,68.85
2018-08-28T16:46:10.431Z,68.83
2018-08-28T16:48:39.098Z,69.47
2018-08-28T16:51:07.956Z,69.34
2018-08-28T16:53:37.705Z,69.55
2018-08-28T16:56:07.973Z,68.92
2018-08-28T16:58:37.437Z,69.22
2018-08-28T17:01:06.617Z,69.36
2018-08-28T17:03:36.056Z,69.23
2018-08-28T17:06:04.957Z,69.08
2018-08-28T17:08:33.857Z,70.07
2018-08-28T17:11:02.827Z,70.11
2018-08-28T17:13:31.804Z,69.79
2018-08-28T17:16:01.135Z,70.69
2018-08-28T17:18:30.487Z,71.41
2018-08-28T17:20:59.223Z,70.08
2018-08-28T17:23:28.483Z,70.75
2018-08-28T17:25:57.465Z,71.45
2018-08-28T17:28:26.364Z,71.78
2018-08-28T17:30:55.229Z,71.64
2018-08-28T17:33:24.443Z,72.18
2018-08-28T17:35:53.159Z,72.08
2018-08-28T17:38:22.168Z,72.12
2018-08-28T17:40:51.022Z,72.12
2018-08-28T17:43:20.630Z,72.48
2018-08-28T17:45:50.306Z,72.40
2018-08-28T17:48:19.729Z,72.06
2018-08-28T17:50:49.086Z,72.52
2018-08-28T17:53:18.554Z,72.56
2018-08-28T17:56:50.801Z,72.53
2018-08-28T17:59:20.061Z,72.09
2018-08-28T18:01:49.108Z,72.36
2018-08-28T18:04:17.931Z,72.48
2018-08-28T18:06:46.911Z,71.96
2018-08-28T18:09:15.656Z,72.36
2018-08-28T18:11:44.284Z,72.42
2018-08-28T18:14:12.938Z,72.20
2018-08-28T18:16:41.792Z,72.15
2018-08-28T18:19:10.601Z,72.22
2018-08-28T18:21:39.672Z,71.90
2018-08-28T18:24:08.402Z,71.54
2018-08-28T18:26:39.128Z,71.46
2018-08-28T18:29:08.048Z,71.29
2018-08-28T18:31:37.016Z,71.15
2018-08-28T18:34:05.748Z,71.07
2018-08-28T18:36:35.666Z,70.66
2018-08-28T18:39:06.152Z,71.05
2018-08-28T18:41:35.339Z,71.29
2018-08-28T18:44:05.283Z,71.32
2018-08-28T18:46:34.307Z,71.55
2018-08-28T18:49:03.931Z,71.80
2018-08-28T18:51:32.922Z,71.76
2018-08-28T18:54:01.936Z,71.95
2018-08-28T18:56:31.073Z,71.98
2018-08-28T18:58:59.736Z,72.22
2018-08-28T19:01:28.469Z,72.67
2018-08-28T19:03:57.318Z,72.60
2018-08-28T19:06:26.692Z,72.46
2018-08-28T19:08:55.442Z,72.48
2018-08-28T19:11:24.855Z,72.82
2018-08-28T19:13:54.381Z,72.66
2018-08-28T19:16:23.185Z,72.48
2018-08-28T19:18:51.919Z,72.96
2018-08-28T19:21:21.291Z,73.32
2018-08-28T19:23:50.134Z,72.89
2018-08-28T19:26:20.555Z,73.46
2018-08-28T19:28:52.125Z,73.52
2018-08-28T19:31:22.707Z,73.98
2018-08-28T19:33:51.550Z,74.66
2018-08-28T19:36:20.411Z,74.09
2018-08-28T19:38:49.299Z,74.51
2018-08-28T19:41:18.325Z,74.19
2018-08-28T19:43:47.233Z,74.35
2018-08-28T19:46:16.130Z,74.47
2018-08-28T19:48:45.095Z,75.21
2018-08-28T19:51:13.827Z,74.93
2018-08-28T19:53:42.661Z,75.02
2018-08-28T19:56:12.172Z,75.54
2018-08-28T19:58:41.229Z,75.50
2018-08-28T20:01:10.134Z,75.53
2018-08-28T20:03:38.863Z,76.18
2018-08-28T20:06:10.892Z,75.40
2018-08-28T20:08:39.806Z,75.81
2018-08-28T20:11:11.871Z,75.67
2018-08-28T20:13:40.583Z,76.22
2018-08-28T20:16:09.277Z,76.16
2018-08-28T20:18:38.193Z,76.25
2018-08-28T20:21:08.081Z,76.56
2018-08-28T20:23:37.125Z,76.62
2018-08-28T20:26:06.582Z,76.61
2018-08-28T20:28:36.062Z,77.50
2018-08-28T20:31:04.804Z,76.94
2018-08-28T20:33:34.353Z,76.97
2018-08-28T20:36:03.993Z,77.10
2018-08-28T20:38:32.864Z,76.94
2018-08-28T20:41:01.745Z,77.26
2018-08-28T20:43:32.466Z,77.75
2018-08-28T20:46:01.071Z,78.16
2018-08-28T20:48:29.778Z,78.30
2018-08-28T20:50:58.533Z,78.24
2018-08-28T20:53:27.571Z,78.22
2018-08-28T20:55:56.487Z,78.38
2018-08-28T20:58:25.457Z,78.67
2018-08-28T21:00:55.273Z,78.86
2018-08-28T21:03:25.307Z,78.98
2018-08-28T21:05:54.230Z,79.24
2018-08-28T21:08:23.428Z,79.15
2018-08-28T21:10:52.176Z,79.22
2018-08-28T21:13:20.822Z,79.66
2018-08-28T21:15:50.618Z,80.05
2018-08-28T21:18:20.766Z,79.79
2018-08-28T21:20:51.204Z,79.80
2018-08-28T21:23:20.166Z,80.02
2018-08-28T21:25:49.370Z,79.93
2018-08-28T21:28:18.493Z,80.23
2018-08-28T21:30:47.907Z,80.13
2018-08-28T21:33:17.137Z,80.20
2018-08-28T21:35:46.520Z,80.20
2018-08-28T21:38:15.292Z,80.34
2018-08-28T21:40:44.432Z,80.53
2018-08-28T21:43:13.577Z,80.44
2018-08-28T21:45:42.362Z,80.39
2018-08-28T21:48:11.307Z,80.50
2018-08-28T21:50:40.632Z,80.91
2018-08-28T21:53:10.485Z,80.47
2018-08-28T21:55:39.528Z,80.20
2018-08-28T21:58:08.607Z,80.66
2018-08-28T22:00:37.869Z,80.80
2018-08-28T22:03:07.955Z,80.75
2018-08-28T22:05:37.240Z,80.94
2018-08-28T22:08:06.669Z,81.58
2018-08-28T22:10:35.522Z,81.05
2018-08-28T22:13:04.236Z,81.21
2018-08-28T22:15:32.970Z,81.39
2018-08-28T22:18:01.932Z,81.62
2018-08-28T22:20:30.987Z,81.81
2018-08-28T22:22:59.961Z,82.03
2018-08-28T22:25:28.925Z,81.83
2018-08-28T22:27:57.683Z,82.05
2018-08-28T22:30:26.360Z,81.83
2018-08-28T22:32:55.319Z,81.96
2018-08-28T22:35:24.437Z,81.80
2018-08-28T22:37:53.668Z,81.87
2018-08-28T22:40:22.537Z,81.95
2018-08-28T22:42:51.168Z,81.85
2018-08-28T22:45:20.393Z,81.67
2018-08-28T22:47:49.157Z,81.73
2018-08-28T22:50:18.130Z,81.45
2018-08-28T22:52:46.772Z,81.76
2018-08-28T22:55:15.632Z,81.89
2018-08-28T22:57:44.726Z,82.01
2018-08-28T23:00:13.471Z,81.91
2018-08-28T23:02:42.226Z,81.91
2018-08-28T23:05:11.291Z,81.63
2018-08-28T23:07:39.974Z,81.86
2018-08-28T23:10:08.893Z,81.72
2018-08-28T23:12:37.772Z,81.82
2018-08-28T23:15:07.006Z,81.76
2018-08-28T23:17:35.994Z,81.81
2018-08-28T23:20:06.368Z,81.85
2018-08-28T23:22:35.260Z,81.75
2018-08-28T23:25:04.169Z,81.97
2018-08-28T23:27:32.785Z,82.33
2018-08-28T23:30:01.780Z,82.73
2018-08-28T23:32:30.486Z,82.35
2018-08-28T23:34:59.272Z,82.91
2018-08-28T23:37:27.990Z,82.64
2018-08-28T23:39:57.044Z,82.08
2018-08-28T23:42:25.837Z,81.98
2018-08-28T23:44:54.728Z,81.88
2018-08-28T23:47:23.938Z,81.84
2018-08-28T23:49:52.727Z,81.83
2018-08-28T23:52:21.607Z,81.61
2018-08-28T23:54:50.316Z,82.00
2018-08-28T23:57:19.130Z,82.09
2018-08-28T23:59:48.046Z,82.10
